createdAt,value
2022-12-31T00:04:48.736Z,9.17
2022-12-31T00:09:48.577Z,9.19
2022-12-31T00:14:48.973Z,9.14
2022-12-31T00:19:48.635Z,9.13
2022-12-31T00:24:48.660Z,9.15
2022-12-31T00:29:48.638Z,9.18
2022-12-31T00:34:48.684Z,9.20
2022-12-31T00:44:49.019Z,9.19
2022-12-31T00:49:48.656Z,9.21
2022-12-31T00:54:48.811Z,9.22
2022-12-31T01:09:48.955Z,9.25
2022-12-31T01:14:48.870Z,9.23
2022-12-31T01:24:49.190Z,9.21
2022-12-31T01:29:48.782Z,9.23
2022-12-31T01:34:49.100Z,9.26
2022-12-31T01:39:48.882Z,9.29
2022-12-31T01:54:54.769Z,9.30
2022-12-31T01:59:49.590Z,9.31
2022-12-31T02:04:53.582Z,9.30
2022-12-31T02:09:49.295Z,9.31
2022-12-31T02:14:52.840Z,9.27
2022-12-31T02:20:08.355Z,9.23
2022-12-31T02:25:02.180Z,9.19
2022-12-31T02:29:59.650Z,9.15
2022-12-31T02:34:53.275Z,9.13
2022-12-31T02:39:50.101Z,9.14
2022-12-31T02:44:49.163Z,9.12
2022-12-31T02:50:00.910Z,9.08
2022-12-31T02:54:58.205Z,9.07
2022-12-31T03:00:06.124Z,9.04
2022-12-31T03:04:51.704Z,8.99
2022-12-31T03:09:49.533Z,8.98
2022-12-31T03:14:49.357Z,8.95
2022-12-31T03:19:59.236Z,8.92
2022-12-31T03:24:59.131Z,8.90
2022-12-31T03:29:49.510Z,8.89
2022-12-31T03:39:49.391Z,8.91
2022-12-31T03:44:49.195Z,8.89
2022-12-31T03:49:49.451Z,8.88
2022-12-31T03:54:49.380Z,8.90
2022-12-31T03:59:49.528Z,8.91
2022-12-31T04:09:49.407Z,8.93
2022-12-31T04:19:49.382Z,8.95
2022-12-31T04:24:49.289Z,8.99
2022-12-31T04:29:49.840Z,9.02
2022-12-31T04:34:49.333Z,9.03
2022-12-31T04:39:49.386Z,9.07
2022-12-31T04:44:49.320Z,9.08
2022-12-31T04:49:49.558Z,9.13
2022-12-31T04:54:49.328Z,9.19
2022-12-31T04:59:49.705Z,9.24
2022-12-31T05:04:49.526Z,9.28
2022-12-31T05:09:49.506Z,9.36
2022-12-31T05:14:49.415Z,9.41
2022-12-31T05:19:49.520Z,9.48
2022-12-31T05:24:51.295Z,9.55
2022-12-31T05:29:50.027Z,9.63
2022-12-31T05:34:49.685Z,9.70
2022-12-31T05:39:49.772Z,9.77
2022-12-31T05:44:49.644Z,9.81
2022-12-31T05:49:49.662Z,9.85
2022-12-31T05:54:49.474Z,9.90
2022-12-31T05:59:52.449Z,9.97
2022-12-31T06:04:49.913Z,10.03
2022-12-31T06:09:49.890Z,10.11
2022-12-31T06:14:49.558Z,10.18
2022-12-31T06:19:49.608Z,10.25
2022-12-31T06:24:49.927Z,10.32
2022-12-31T06:29:50.154Z,10.40
2022-12-31T06:34:49.689Z,10.46
2022-12-31T06:39:49.802Z,10.52
2022-12-31T06:44:49.608Z,10.57
2022-12-31T06:49:49.725Z,10.60
2022-12-31T06:54:50.569Z,10.65
2022-12-31T06:59:50.224Z,10.67
2022-12-31T07:05:09.642Z,10.70
2022-12-31T07:09:56.586Z,10.76
2022-12-31T07:14:57.225Z,10.77
2022-12-31T07:19:59.886Z,10.79
2022-12-31T07:24:50.089Z,10.83
2022-12-31T07:30:00.777Z,10.85
2022-12-31T07:34:58.429Z,10.86
2022-12-31T07:40:02.310Z,10.89
2022-12-31T07:44:57.902Z,10.87
2022-12-31T07:49:50.909Z,10.82
2022-12-31T07:54:50.073Z,10.76
2022-12-31T07:59:59.658Z,10.74
2022-12-31T08:04:57.347Z,10.73
2022-12-31T08:14:50.253Z,10.70
2022-12-31T08:19:50.437Z,10.69
2022-12-31T08:25:03.213Z,10.68
2022-12-31T08:40:02.568Z,10.72
2022-12-31T08:54:50.743Z,10.73
2022-12-31T09:00:01.381Z,10.74
2022-12-31T09:04:59.214Z,10.75
2022-12-31T09:09:58.434Z,10.79
2022-12-31T09:19:50.612Z,10.83
2022-12-31T09:24:50.888Z,10.86
2022-12-31T09:29:56.471Z,10.88
2022-12-31T09:34:55.859Z,10.92
2022-12-31T09:39:50.426Z,10.96
2022-12-31T09:45:09.345Z,10.98
2022-12-31T09:50:11.589Z,11.02
2022-12-31T09:54:54.298Z,11.04
2022-12-31T09:59:57.214Z,11.06
2022-12-31T10:05:00.543Z,11.08
2022-12-31T10:10:02.350Z,11.12
2022-12-31T10:15:07.992Z,11.11
2022-12-31T10:29:57.806Z,11.12
2022-12-31T10:35:00.068Z,11.13
2022-12-31T10:40:02.483Z,11.18
2022-12-31T10:50:10.201Z,11.16
2022-12-31T10:55:10.101Z,11.15
2022-12-31T11:00:06.537Z,11.11
2022-12-31T11:05:10.157Z,11.09
2022-12-31T11:15:10.243Z,11.04
2022-12-31T11:20:00.340Z,11.03
2022-12-31T11:25:05.298Z,11.01
2022-12-31T11:30:00.677Z,11.00
2022-12-31T11:40:03.281Z,11.01
2022-12-31T11:44:57.947Z,10.99
2022-12-31T11:50:02.831Z,10.98
2022-12-31T11:55:01.574Z,10.99
2022-12-31T11:59:55.710Z,11.00
2022-12-31T12:04:52.314Z,11.01
2022-12-31T12:09:53.585Z,11.03
2022-12-31T12:14:52.991Z,11.00
2022-12-31T12:24:53.893Z,10.98
2022-12-31T12:29:50.575Z,10.97
2022-12-31T12:34:51.600Z,10.95
2022-12-31T12:39:56.325Z,10.96
2022-12-31T12:45:00.671Z,10.93
2022-12-31T12:49:53.968Z,10.90
2022-12-31T12:55:04.266Z,10.87
2022-12-31T13:00:03.389Z,10.85
2022-12-31T13:05:05.830Z,10.82
2022-12-31T13:10:07.325Z,10.83
2022-12-31T13:14:58.762Z,10.79
2022-12-31T13:29:53.133Z,10.78
2022-12-31T13:34:57.116Z,10.79
2022-12-31T13:40:00.364Z,10.82
2022-12-31T13:49:56.685Z,10.85
2022-12-31T13:54:56.926Z,10.89
2022-12-31T13:59:56.202Z,10.96
2022-12-31T14:04:57.596Z,10.99
2022-12-31T14:09:51.656Z,11.06
2022-12-31T14:14:58.747Z,11.08
2022-12-31T14:19:59.680Z,11.09
2022-12-31T14:24:51.523Z,11.10
2022-12-31T14:29:55.169Z,11.11
2022-12-31T14:35:00.157Z,11.12
2022-12-31T14:39:57.028Z,11.14
2022-12-31T14:45:03.349Z,11.12
2022-12-31T14:50:03.050Z,11.14
2022-12-31T14:55:02.541Z,11.13
2022-12-31T15:15:05.278Z,11.08
2022-12-31T15:20:01.551Z,11.05
2022-12-31T15:24:51.608Z,11.03
2022-12-31T15:29:51.222Z,11.02
2022-12-31T15:35:01.047Z,11.01
2022-12-31T15:39:51.353Z,11.02
2022-12-31T15:44:58.426Z,10.98
2022-12-31T15:54:55.558Z,10.95
2022-12-31T15:59:57.151Z,10.91
2022-12-31T16:04:52.103Z,10.87
2022-12-31T16:14:53.296Z,10.83
2022-12-31T16:19:51.490Z,10.80
2022-12-31T16:25:29.114Z,10.78
2022-12-31T16:29:59.492Z,10.76
2022-12-31T16:34:53.789Z,10.74
2022-12-31T16:40:11.164Z,10.76
2022-12-31T16:44:53.056Z,10.73
2022-12-31T16:50:03.015Z,10.71
2022-12-31T16:54:52.504Z,10.70
2022-12-31T16:59:53.892Z,10.68
2022-12-31T17:04:55.937Z,10.67
2022-12-31T17:10:01.316Z,10.69
2022-12-31T17:14:51.359Z,10.66
2022-12-31T17:19:56.843Z,10.63
2022-12-31T17:24:57.849Z,10.65
2022-12-31T17:34:51.723Z,10.66
2022-12-31T17:39:53.390Z,10.70
2022-12-31T17:49:52.778Z,10.73
2022-12-31T17:54:51.452Z,10.75
2022-12-31T17:59:51.809Z,10.76
2022-12-31T18:04:52.185Z,10.78
2022-12-31T18:09:51.626Z,10.83
2022-12-31T18:14:51.592Z,10.82
2022-12-31T18:20:04.872Z,10.83
2022-12-31T18:34:52.047Z,10.84
2022-12-31T18:39:51.620Z,10.87
2022-12-31T18:44:51.593Z,10.86
2022-12-31T18:59:51.713Z,10.85
2022-12-31T19:09:58.171Z,10.86
2022-12-31T19:14:51.854Z,10.85
2022-12-31T19:19:51.849Z,10.86
2022-12-31T19:24:51.802Z,10.85
2022-12-31T19:29:51.797Z,10.86
2022-12-31T19:39:51.825Z,10.89
2022-12-31T19:44:51.871Z,10.90
2022-12-31T19:49:51.800Z,10.92
2022-12-31T19:54:51.836Z,10.96
2022-12-31T19:59:51.948Z,10.99
2022-12-31T20:04:51.841Z,11.03
2022-12-31T20:09:51.922Z,11.10
2022-12-31T20:14:51.951Z,11.11
2022-12-31T20:34:51.966Z,11.12
2022-12-31T20:39:51.936Z,11.14
2022-12-31T20:44:52.141Z,11.13
2022-12-31T20:50:11.127Z,11.11
2022-12-31T20:59:52.100Z,11.10
2022-12-31T21:04:52.184Z,11.09
2022-12-31T21:09:52.184Z,11.12
2022-12-31T21:14:52.034Z,11.09
2022-12-31T21:19:52.001Z,11.07
2022-12-31T21:24:52.253Z,11.06
2022-12-31T21:35:31.140Z,11.03
2022-12-31T21:39:52.393Z,11.04
2022-12-31T21:44:52.280Z,10.98
2022-12-31T21:49:52.097Z,10.97
2022-12-31T21:55:03.776Z,10.95
2022-12-31T22:00:39.457Z,10.91
2022-12-31T22:05:03.097Z,10.88
2022-12-31T22:09:52.376Z,10.87
2022-12-31T22:15:14.932Z,10.82
2022-12-31T22:20:17.555Z,10.79
2022-12-31T22:24:52.610Z,10.76
2022-12-31T22:29:52.246Z,10.74
2022-12-31T22:34:52.932Z,10.69
2022-12-31T22:44:52.569Z,10.61
2022-12-31T22:49:52.351Z,10.56
2022-12-31T22:54:52.429Z,10.51
2022-12-31T22:59:52.672Z,10.48
2022-12-31T23:04:52.442Z,10.43
2022-12-31T23:15:02.369Z,10.37
2022-12-31T23:20:02.259Z,10.31
2022-12-31T23:24:52.930Z,10.29
2022-12-31T23:29:52.576Z,10.27
2022-12-31T23:34:54.701Z,10.26
2022-12-31T23:39:52.827Z,10.31
2022-12-31T23:44:52.417Z,10.27
2022-12-31T23:49:52.728Z,10.08
2022-12-31T23:54:52.684Z,9.92
2022-12-31T23:59:52.522Z,9.74
